Time;durP1;ratioP1;P1;durP2;ratioP2;P2;SDS_P1;SDS_P2;PMS_P1;PMS_P2;Temp;Humidity;BMP_temperature;BMP_pressure;BME280_temperature;BME280_humidity;BME280_pressure;Samples;Min_cycle;Max_cycle;Signal;HPM_P1;HPM_P2
2022/03/18 00:03:14;;;;;;;40.37;22.73;;;5.90;99.90;;;;;;10436350;28;20275;-79
2022/03/18 00:08:36;;;;;;;39.40;24.47;;;5.90;99.90;;;;;;10394412;28;20198;-79
2022/03/18 00:13:58;;;;;;;40.50;24.60;;;5.80;99.90;;;;;;10381021;28;20247;-76
2022/03/18 00:19:20;;;;;;;39.33;23.43;;;5.80;99.90;;;;;;10394791;28;20207;-78
2022/03/18 00:24:42;;;;;;;36.40;23.13;;;5.70;99.90;;;;;;10394706;28;20252;-78
2022/03/18 00:30:06;;;;;;;43.57;25.83;;;5.70;99.90;;;;;;10393954;28;20203;-78
2022/03/18 00:35:28;;;;;;;52.20;31.10;;;5.60;99.90;;;;;;10394603;28;20230;-79
2022/03/18 00:40:50;;;;;;;45.23;28.97;;;5.60;99.90;;;;;;10394503;28;20570;-78
2022/03/18 00:46:12;;;;;;;48.07;27.90;;;5.60;99.90;;;;;;10395200;28;20194;-78
2022/03/18 00:57:14;;;;;;;61.30;39.87;;;5.50;99.90;;;;;;10407857;28;20193;-78
2022/03/18 01:02:36;;;;;;;40.03;24.67;;;5.50;99.90;;;;;;10442887;28;20202;-78
2022/03/18 01:07:58;;;;;;;37.63;22.50;;;5.50;99.90;;;;;;10401110;28;20504;-78
2022/03/18 01:13:21;;;;;;;34.00;20.73;;;5.30;99.90;;;;;;10388090;28;20243;-78
2022/03/18 01:18:43;;;;;;;34.97;20.77;;;5.30;99.90;;;;;;10388270;28;20436;-78
2022/03/18 01:24:05;;;;;;;32.37;20.80;;;5.20;99.90;;;;;;10376634;28;20199;-78
2022/03/18 01:29:27;;;;;;;36.00;21.03;;;5.20;99.90;;;;;;10388410;28;20209;-79
2022/03/18 01:34:49;;;;;;;34.67;21.30;;;5.20;99.90;;;;;;10386724;28;20233;-77
2022/03/18 01:40:12;;;;;;;38.23;20.83;;;5.10;99.90;;;;;;10400157;28;20195;-78
2022/03/18 01:45:34;;;;;;;29.67;19.27;;;5.10;99.90;;;;;;10401267;28;20194;-76
2022/03/18 01:50:55;;;;;;;35.73;21.77;;;5.10;99.90;;;;;;10400895;28;20199;-77
2022/03/18 01:56:17;;;;;;;32.73;20.07;;;5.10;99.90;;;;;;10399730;28;20242;-77
2022/03/18 02:01:41;;;;;;;30.50;20.67;;;5.00;99.90;;;;;;10441620;28;20212;-76
2022/03/18 02:07:04;;;;;;;38.13;21.20;;;5.00;99.90;;;;;;10409950;28;20201;-76
2022/03/18 02:12:26;;;;;;;31.90;19.30;;;4.90;99.90;;;;;;10359678;28;20254;-78
2022/03/18 02:17:48;;;;;;;39.07;21.47;;;4.80;99.90;;;;;;10373545;28;20195;-78
2022/03/18 02:23:10;;;;;;;32.60;20.57;;;4.80;99.90;;;;;;10385037;28;20246;-78
2022/03/18 02:28:32;;;;;;;34.80;19.67;;;4.70;99.90;;;;;;10399467;28;20373;-78
2022/03/18 02:33:54;;;;;;;33.67;19.77;;;4.70;99.90;;;;;;10398539;28;20415;-78
2022/03/18 02:39:16;;;;;;;33.83;19.93;;;4.60;99.90;;;;;;10398050;28;20194;-78
2022/03/18 02:44:38;;;;;;;31.63;20.47;;;4.50;99.90;;;;;;10370606;28;20202;-78
2022/03/18 02:50:00;;;;;;;31.37;18.90;;;4.40;99.90;;;;;;10398477;28;20236;-78
2022/03/18 02:55:23;;;;;;;27.17;17.67;;;4.30;99.90;;;;;;10397162;28;20240;-78
2022/03/18 03:00:44;;;;;;;36.90;18.90;;;4.20;99.90;;;;;;10431483;28;20193;-78
2022/03/18 03:11:47;;;;;;;29.53;18.80;;;4.10;99.90;;;;;;10362734;28;20246;-78
2022/03/18 03:17:09;;;;;;;28.83;17.70;;;4.20;99.90;;;;;;10379176;28;20271;-77
2022/03/18 03:22:31;;;;;;;27.67;17.63;;;4.10;99.90;;;;;;10382582;28;20199;-78
2022/03/18 03:27:54;;;;;;;36.00;18.87;;;4.10;99.90;;;;;;10397329;28;20210;-77
2022/03/18 03:33:16;;;;;;;27.53;16.53;;;4.00;99.90;;;;;;10382225;28;20229;-77
2022/03/18 03:38:38;;;;;;;31.07;17.90;;;4.00;99.90;;;;;;10368327;28;20272;-77
2022/03/18 03:44:02;;;;;;;30.20;16.73;;;4.00;99.90;;;;;;10382121;28;20511;-77
2022/03/18 03:49:24;;;;;;;45.60;23.07;;;4.00;99.90;;;;;;10381119;28;20202;-77
2022/03/18 03:54:45;;;;;;;67.30;30.97;;;4.00;99.90;;;;;;10395435;28;20225;-77
2022/03/18 04:00:10;;;;;;;69.53;30.97;;;3.90;99.90;;;;;;10410770;28;20480;-77
2022/03/18 04:05:33;;;;;;;60.60;27.53;;;3.90;99.90;;;;;;10418541;28;20276;-78
2022/03/18 04:10:55;;;;;;;47.60;23.97;;;3.70;99.90;;;;;;10367119;28;20458;-78
2022/03/18 04:16:17;;;;;;;42.60;21.93;;;3.60;99.90;;;;;;10374845;28;20226;-78
2022/03/18 04:21:39;;;;;;;35.03;20.00;;;3.60;99.90;;;;;;10367867;28;20225;-77
2022/03/18 04:27:02;;;;;;;34.97;18.97;;;3.50;99.90;;;;;;10362126;28;20251;-77
2022/03/18 04:32:24;;;;;;;33.50;19.77;;;3.50;99.90;;;;;;10402618;28;20339;-77
2022/03/18 04:37:46;;;;;;;33.63;19.73;;;3.40;99.90;;;;;;10388959;28;20200;-78
2022/03/18 04:43:08;;;;;;;30.70;18.70;;;3.40;99.90;;;;;;10403587;28;20355;-77
2022/03/18 04:48:30;;;;;;;35.27;18.60;;;3.40;99.90;;;;;;10401971;28;20212;-77
2022/03/18 04:53:52;;;;;;;34.37;19.30;;;3.30;99.90;;;;;;10388453;28;20255;-77
2022/03/18 04:59:14;;;;;;;28.37;17.47;;;3.30;99.90;;;;;;10424723;28;20192;-77
2022/03/18 05:04:36;;;;;;;36.23;19.67;;;3.30;99.90;;;;;;10433946;28;20201;-78
2022/03/18 05:09:58;;;;;;;29.47;19.30;;;3.30;99.90;;;;;;10381415;28;20241;-77
2022/03/18 05:15:20;;;;;;;38.37;17.97;;;3.30;99.90;;;;;;10347028;28;20217;-79
2022/03/18 05:20:42;;;;;;;32.27;17.00;;;3.20;99.90;;;;;;10388109;28;20500;-77
2022/03/18 05:26:04;;;;;;;30.13;18.67;;;3.30;99.90;;;;;;10405701;28;20221;-77
2022/03/18 05:31:27;;;;;;;62.73;31.13;;;3.30;99.90;;;;;;10400447;28;20287;-78
2022/03/18 05:36:49;;;;;;;68.13;37.47;;;3.30;99.90;;;;;;10386781;28;20248;-77
2022/03/18 05:42:12;;;;;;;61.60;31.97;;;3.30;99.90;;;;;;10400567;28;20192;-77
2022/03/18 05:47:34;;;;;;;36.60;19.63;;;3.40;99.90;;;;;;10400117;28;20491;-77
2022/03/18 05:52:56;;;;;;;39.87;19.67;;;3.40;99.90;;;;;;10399705;28;20274;-77
2022/03/18 05:58:19;;;;;;;38.67;21.43;;;3.40;99.90;;;;;;10413508;28;20550;-78
2022/03/18 06:03:41;;;;;;;37.77;21.03;;;3.40;99.90;;;;;;10437975;28;20555;-78
2022/03/18 06:14:45;;;;;;;33.50;20.03;;;3.50;99.90;;;;;;10358678;28;20413;-78
2022/03/18 06:20:08;;;;;;;34.87;19.23;;;3.50;99.90;;;;;;10371391;28;20198;-78
2022/03/18 06:25:30;;;;;;;38.70;17.20;;;3.60;99.90;;;;;;10359016;28;20559;-78
2022/03/18 06:30:52;;;;;;;35.60;18.60;;;3.80;99.90;;;;;;10406443;28;20208;-78
2022/03/18 06:36:14;;;;;;;45.40;24.30;;;3.90;99.90;;;;;;10397658;28;20263;-78
2022/03/18 06:41:37;;;;;;;39.37;21.03;;;4.10;99.90;;;;;;10398173;28;20193;-78
2022/03/18 06:46:59;;;;;;;29.73;16.47;;;4.20;99.60;;;;;;10398202;28;20239;-78
2022/03/18 06:52:23;;;;;;;27.73;14.53;;;4.20;99.40;;;;;;10397399;28;20202;-78
2022/03/18 06:57:45;;;;;;;34.57;17.23;;;4.30;99.90;;;;;;10406496;28;20216;-78
2022/03/18 07:03:10;;;;;;;30.87;17.70;;;4.30;99.50;;;;;;10438761;28;20449;-78
2022/03/18 07:08:34;;;;;;;30.07;16.70;;;4.60;98.30;;;;;;10386332;28;20214;-78
2022/03/18 07:13:56;;;;;;;25.93;15.23;;;4.90;96.70;;;;;;10356808;28;20238;-78
2022/03/18 07:19:18;;;;;;;39.23;20.70;;;5.10;95.20;;;;;;10383251;28;20204;-78
2022/03/18 07:24:40;;;;;;;31.83;16.33;;;5.30;93.50;;;;;;10383363;28;20519;-78
2022/03/18 07:30:04;;;;;;;29.10;16.53;;;5.30;93.30;;;;;;10384912;28;20444;-78
2022/03/18 07:35:26;;;;;;;33.43;19.37;;;5.60;92.50;;;;;;10381719;28;20228;-77
2022/03/18 07:40:48;;;;;;;31.03;18.27;;;5.80;89.10;;;;;;10395780;28;20238;-77
2022/03/18 07:46:11;;;;;;;36.40;18.63;;;6.00;86.20;;;;;;10367999;28;20258;-79
2022/03/18 07:51:33;;;;;;;32.63;17.67;;;6.30;82.50;;;;;;10379273;28;20231;-80
2022/03/18 07:56:55;;;;;;;30.73;16.13;;;6.50;79.50;;;;;;10412761;28;20450;-79
2022/03/18 08:02:17;;;;;;;29.33;16.97;;;6.90;72.30;;;;;;10389211;28;20211;-79
2022/03/18 08:07:40;;;;;;;38.73;19.77;;;7.30;70.30;;;;;;10373952;28;20209;-80
2022/03/18 08:13:03;;;;;;;27.13;16.10;;;7.80;60.10;;;;;;10383996;28;20231;-79
2022/03/18 08:18:26;;;;;;;30.47;15.43;;;8.10;55.80;;;;;;10389938;28;20290;-80
2022/03/18 08:23:48;;;;;;;29.27;15.50;;;8.20;52.20;;;;;;10390113;28;20503;-79
2022/03/18 08:29:10;;;;;;;24.07;14.70;;;8.60;49.90;;;;;;10388581;28;20759;-82
2022/03/18 08:34:32;;;;;;;28.37;13.77;;;8.80;46.70;;;;;;10375060;28;20244;-80
2022/03/18 08:39:54;;;;;;;24.97;13.57;;;8.90;45.20;;;;;;10361711;28;20229;-83
2022/03/18 08:45:18;;;;;;;28.83;14.50;;;9.20;43.90;;;;;;10375770;28;20279;-85
2022/03/18 08:50:39;;;;;;;42.97;25.70;;;9.60;41.00;;;;;;10391746;28;20212;-83
2022/03/18 08:56:01;;;;;;;32.60;17.73;;;10.00;39.00;;;;;;10375744;28;20246;-80
2022/03/18 09:01:25;;;;;;;44.23;24.83;;;10.10;38.70;;;;;;10414021;28;20549;-83
2022/03/18 09:06:47;;;;;;;37.05;21.40;;;10.40;36.80;;;;;;10402814;28;20208;-82
2022/03/18 09:12:09;;;;;;;23.13;14.85;;;11.00;34.70;;;;;;10326557;28;20247;-86
2022/03/18 09:17:31;;;;;;;20.55;12.77;;;11.50;33.30;;;;;;10355037;28;20312;-82
2022/03/18 09:22:53;;;;;;;24.10;13.98;;;11.60;37.60;;;;;;10377310;28;20196;-86
2022/03/18 09:28:15;;;;;;;24.25;12.50;;;11.60;30.20;;;;;;10385133;28;20246;-90
2022/03/18 09:33:43;;;;;;;21.15;11.93;;;11.80;28.80;;;;;;10368368;28;20259;-90
2022/03/18 09:39:05;;;;;;;26.60;13.98;;;12.50;27.60;;;;;;10353740;28;20208;-81
2022/03/18 09:44:38;;;;;;;18.55;11.52;;;12.50;27.40;;;;;;10361661;28;20255;-80
2022/03/18 09:50:00;;;;;;;24.80;14.40;;;12.90;27.30;;;;;;10393922;28;20509;-87
2022/03/18 09:55:26;;;;;;;24.98;13.30;;;12.90;27.10;;;;;;10343155;28;20243;-92
2022/03/18 10:00:50;;;;;;;22.67;14.02;;;13.00;26.50;;;;;;10434508;28;20293;-87
2022/03/18 10:06:13;;;;;;;24.58;13.00;;;13.40;30.00;;;;;;10384290;28;20204;-82
2022/03/18 10:11:37;;;;;;;18.75;12.05;;;13.60;34.80;;;;;;10380773;28;20475;-83
2022/03/18 10:17:04;;;;;;;20.17;13.82;;;13.60;24.40;;;;;;10380262;28;20434;-82
2022/03/18 10:22:28;;;;;;;16.75;10.98;;;13.60;24.00;;;;;;10407081;28;20224;-83
2022/03/18 10:27:50;;;;;;;18.75;11.25;;;14.20;23.00;;;;;;10393056;28;20205;-83
2022/03/18 10:33:11;;;;;;;19.63;10.88;;;14.30;22.70;;;;;;10406743;28;20234;-82
2022/03/18 10:38:35;;;;;;;19.55;12.52;;;14.00;22.30;;;;;;10406483;28;20232;-82
2022/03/18 10:43:57;;;;;;;17.55;11.52;;;14.30;22.20;;;;;;10393713;28;20339;-86
2022/03/18 10:49:24;;;;;;;22.88;11.50;;;14.70;21.50;;;;;;10405423;28;20211;-82
2022/03/18 10:54:45;;;;;;;17.67;11.15;;;14.50;21.10;;;;;;10378195;28;20236;-81
2022/03/18 11:00:09;;;;;;;18.95;11.30;;;14.50;20.80;;;;;;10422991;28;20260;-83
2022/03/18 11:05:37;;;;;;;21.80;12.07;;;14.70;20.40;;;;;;10378383;28;20207;-86
2022/03/18 11:11:15;;;;;;;18.02;10.70;;;15.00;20.20;;;;;;10411966;28;20587;-82
2022/03/18 11:16:40;;;;;;;18.10;11.63;;;15.60;19.80;;;;;;10378761;28;20239;-81
2022/03/18 11:22:05;;;;;;;19.13;11.13;;;16.20;18.70;;;;;;10390442;28;20467;-81
2022/03/18 11:27:28;;;;;;;16.35;10.00;;;16.80;17.70;;;;;;10370191;28;20287;-86
2022/03/18 11:33:16;;;;;;;18.13;11.13;;;17.20;16.80;;;;;;10392908;28;20199;-84
2022/03/18 11:38:52;;;;;;;22.23;10.25;;;16.80;16.00;;;;;;10377451;28;20232;-81
2022/03/18 11:44:39;;;;;;;17.77;10.88;;;16.50;16.50;;;;;;10389117;28;20211;-82
2022/03/18 11:50:21;;;;;;;15.63;9.77;;;15.90;17.50;;;;;;10364180;28;20290;-82
2022/03/18 11:55:45;;;;;;;15.35;10.15;;;15.50;17.20;;;;;;10383418;28;20246;-82
2022/03/18 12:01:41;;;;;;;18.42;9.98;;;14.90;18.10;;;;;;10401677;28;20250;-83
2022/03/18 12:07:31;;;;;;;20.27;11.23;;;14.60;17.90;;;;;;10385491;28;20614;-81
2022/03/18 12:12:54;;;;;;;16.65;10.05;;;14.90;18.40;;;;;;10400490;28;20236;-82
2022/03/18 12:18:27;;;;;;;18.83;9.98;;;16.10;16.90;;;;;;10399199;28;20194;-86
2022/03/18 12:24:06;;;;;;;19.83;9.98;;;16.60;16.00;;;;;;10383428;28;20400;-83
2022/03/18 12:29:51;;;;;;;16.75;9.65;;;16.60;16.00;;;;;;10392966;28;20216;-82
2022/03/18 12:35:16;;;;;;;15.93;10.15;;;16.90;16.10;;;;;;10416313;28;20571;-89
2022/03/18 12:40:41;;;;;;;19.52;10.23;;;17.10;15.40;;;;;;10407745;28;20272;-84
2022/03/18 12:46:04;;;;;;;27.45;15.30;;;17.20;15.40;;;;;;10409910;28;20201;-83
2022/03/18 12:51:28;;;;;;;18.70;10.90;;;17.00;14.90;;;;;;10417942;28;20196;-83
2022/03/18 12:56:50;;;;;;;17.15;11.73;;;17.00;15.30;;;;;;10414358;28;20223;-82
2022/03/18 13:02:12;;;;;;;20.05;13.93;;;16.80;15.50;;;;;;10404948;28;20200;-83
2022/03/18 13:07:34;;;;;;;17.23;12.27;;;16.70;15.80;;;;;;10397529;28;20213;-82
2022/03/18 13:13:16;;;;;;;20.10;12.90;;;16.90;16.00;;;;;;10384421;28;20255;-82
2022/03/18 13:18:38;;;;;;;20.02;12.50;;;17.00;16.00;;;;;;10416365;28;20441;-83
2022/03/18 13:24:02;;;;;;;17.27;12.07;;;17.20;16.00;;;;;;10405019;28;20210;-82
2022/03/18 13:32:50;;;;;;;19.02;11.70;;;16.70;16.20;;;;;;10418156;28;20286;-82
2022/03/18 13:35:10;;;;;;;19.58;12.05;;;16.40;16.60;;;;;;10410242;28;20262;-83
2022/03/18 13:40:34;;;;;;;16.95;11.95;;;15.90;17.00;;;;;;10396603;28;20211;-83
2022/03/18 13:46:17;;;;;;;22.00;14.43;;;15.50;17.40;;;;;;10403084;28;20198;-84
2022/03/18 13:51:42;;;;;;;21.17;12.75;;;15.10;18.30;;;;;;10403862;28;20230;-81
2022/03/18 13:57:04;;;;;;;21.58;12.63;;;15.00;18.10;;;;;;10388088;28;20310;-83
2022/03/18 14:02:28;;;;;;;22.33;13.85;;;14.90;18.20;;;;;;10395761;28;20402;-81
2022/03/18 14:07:51;;;;;;;20.83;15.38;;;14.90;18.60;;;;;;10400993;28;20201;-83
2022/03/18 14:13:14;;;;;;;20.75;13.10;;;14.60;18.40;;;;;;10394175;28;20548;-81
2022/03/18 14:18:44;;;;;;;18.23;12.05;;;14.50;19.00;;;;;;10395886;28;20230;-82
2022/03/18 14:24:06;;;;;;;24.13;14.75;;;14.10;19.40;;;;;;10385855;28;20206;-82
2022/03/18 14:29:31;;;;;;;23.15;14.98;;;13.70;20.00;;;;;;10373911;28;20203;-83
2022/03/18 14:34:54;;;;;;;21.33;13.23;;;13.30;20.30;;;;;;10415443;28;20230;-90
2022/03/18 14:40:19;;;;;;;36.53;20.80;;;13.40;20.70;;;;;;10397102;28;20229;-83
2022/03/18 14:45:41;;;;;;;29.75;17.27;;;13.20;20.50;;;;;;10412209;28;20295;-88
2022/03/18 14:51:04;;;;;;;25.63;14.20;;;13.30;21.00;;;;;;10415027;28;20243;-86
2022/03/18 14:56:26;;;;;;;21.67;13.02;;;13.20;21.00;;;;;;10383354;28;20280;-81
2022/03/18 15:01:48;;;;;;;23.70;12.77;;;13.30;21.00;;;;;;10385462;28;20217;-88
2022/03/18 15:07:12;;;;;;;21.23;11.98;;;13.30;20.90;;;;;;10403020;28;20212;-81
2022/03/18 15:12:35;;;;;;;21.95;12.18;;;13.30;20.80;;;;;;10390814;28;20462;-80
2022/03/18 15:17:58;;;;;;;16.02;12.02;;;12.90;21.30;;;;;;10393317;28;20228;-80
2022/03/18 15:23:20;;;;;;;40.95;21.50;;;12.60;22.00;;;;;;10379377;28;20392;-81
2022/03/18 15:28:42;;;;;;;38.70;23.40;;;12.30;33.30;;;;;;10392166;28;20355;-82
2022/03/18 15:34:06;;;;;;;39.55;22.45;;;12.00;67.60;;;;;;10398055;28;20232;-81
2022/03/18 15:39:28;;;;;;;44.63;26.07;;;11.70;91.10;;;;;;10397785;28;20515;-80
2022/03/18 15:44:51;;;;;;;37.03;23.53;;;11.60;95.50;;;;;;10380146;28;20561;-82
2022/03/18 15:50:26;;;;;;;41.83;26.27;;;11.50;98.00;;;;;;10411546;28;20201;-82
2022/03/18 15:55:49;;;;;;;43.73;28.20;;;11.40;99.50;;;;;;10389691;28;20291;-83
2022/03/18 16:01:13;;;;;;;42.20;26.80;;;11.20;99.90;;;;;;10383825;28;20263;-82
2022/03/18 16:06:36;;;;;;;49.93;28.83;;;11.10;99.90;;;;;;10383369;28;20538;-82
2022/03/18 16:12:02;;;;;;;38.75;25.15;;;11.00;99.90;;;;;;10378106;28;20451;-81
2022/03/18 16:17:30;;;;;;;38.57;23.47;;;10.90;99.90;;;;;;10394821;28;20291;-80
2022/03/18 16:22:52;;;;;;;36.07;22.93;;;10.80;99.90;;;;;;10390965;28;20249;-80
2022/03/18 16:28:15;;;;;;;35.37;22.10;;;10.70;99.90;;;;;;10377463;28;20204;-80
2022/03/18 16:33:36;;;;;;;36.20;21.87;;;10.60;99.90;;;;;;10379243;28;20211;-81
2022/03/18 16:38:58;;;;;;;33.00;22.03;;;10.50;99.90;;;;;;10367110;28;20207;-81
2022/03/18 16:44:20;;;;;;;34.17;22.07;;;10.30;99.90;;;;;;10366975;28;20207;-81
2022/03/18 16:49:44;;;;;;;33.17;22.00;;;10.20;99.90;;;;;;10380425;28;20229;-81
2022/03/18 16:55:08;;;;;;;42.13;23.47;;;10.00;99.90;;;;;;10373808;28;20270;-81
2022/03/18 17:00:33;;;;;;;35.93;23.40;;;9.80;99.90;;;;;;10373944;28;20200;-81
2022/03/18 17:05:55;;;;;;;36.43;23.53;;;9.60;99.90;;;;;;10394268;28;20200;-81
2022/03/18 17:11:17;;;;;;;39.93;25.50;;;9.40;99.90;;;;;;10393548;28;20243;-81
2022/03/18 17:16:40;;;;;;;48.03;27.43;;;;;;;;;;10366622;28;20251;-81
2022/03/18 17:22:04;;;;;;;63.83;36.27;;;9.10;99.90;;;;;;10393529;28;20382;-80
2022/03/18 17:27:31;;;;;;;75.83;42.53;;;9.00;99.90;;;;;;10393467;28;20200;-80
2022/03/18 17:32:54;;;;;;;85.90;48.53;;;8.80;99.90;;;;;;10366288;28;20376;-80
2022/03/18 17:38:16;;;;;;;104.97;55.07;;;8.60;99.90;;;;;;10371809;28;20248;-79
2022/03/18 17:43:38;;;;;;;130.67;65.77;;;8.60;99.90;;;;;;10400451;28;20205;-80
2022/03/18 17:49:03;;;;;;;151.57;76.50;;;8.40;99.90;;;;;;10386763;28;20204;-80
2022/03/18 17:54:25;;;;;;;176.40;83.00;;;8.10;99.90;;;;;;10392570;28;20214;-82
2022/03/18 17:59:48;;;;;;;189.50;90.13;;;8.00;99.90;;;;;;10398565;28;20241;-80
2022/03/18 18:05:11;;;;;;;129.40;67.43;;;7.90;99.90;;;;;;10361965;28;20239;-80
2022/03/18 18:10:33;;;;;;;73.80;41.60;;;7.80;99.90;;;;;;10344793;28;20244;-82
2022/03/18 18:15:56;;;;;;;66.17;37.10;;;7.80;99.90;;;;;;10376120;28;20464;-82
2022/03/18 18:26:59;;;;;;;49.27;30.03;;;7.70;99.90;;;;;;10398914;28;20274;-82
2022/03/18 18:32:23;;;;;;;42.77;27.27;;;7.70;99.90;;;;;;10399669;28;20469;-79
2022/03/18 18:37:45;;;;;;;37.90;22.60;;;7.70;99.90;;;;;;10398286;28;20319;-82
2022/03/18 18:43:07;;;;;;;49.53;24.40;;;7.70;99.90;;;;;;10370411;28;20218;-82
2022/03/18 18:48:29;;;;;;;56.50;28.17;;;7.70;99.90;;;;;;10398227;28;20206;-82
2022/03/18 18:53:53;;;;;;;46.87;25.47;;;7.80;99.90;;;;;;10391540;28;20291;-81
2022/03/18 18:59:15;;;;;;;67.43;35.27;;;7.90;99.90;;;;;;10419949;28;20251;-81
2022/03/18 19:04:37;;;;;;;72.17;37.63;;;8.00;99.90;;;;;;10384974;28;20206;-79
2022/03/18 19:09:59;;;;;;;82.90;42.90;;;8.00;99.90;;;;;;10383225;28;20257;-80
2022/03/18 19:15:22;;;;;;;70.47;37.87;;;8.00;99.90;;;;;;10383348;28;20529;-82
2022/03/18 19:20:44;;;;;;;52.53;26.13;;;8.00;99.90;;;;;;10369485;28;20491;-82
2022/03/18 19:26:06;;;;;;;40.33;20.57;;;8.00;99.90;;;;;;10396846;28;20510;-80
2022/03/18 19:37:09;;;;;;;38.50;21.77;;;8.00;99.90;;;;;;10395854;28;20426;-81
2022/03/18 19:42:31;;;;;;;46.83;19.97;;;8.10;99.90;;;;;;10395871;28;20244;-81
2022/03/18 19:47:53;;;;;;;38.63;20.00;;;8.10;99.90;;;;;;10381797;28;20215;-81
2022/03/18 19:53:15;;;;;;;34.73;17.70;;;8.00;99.90;;;;;;10375455;28;20198;-80
2022/03/18 20:04:17;;;;;;;25.60;11.67;;;8.00;99.90;;;;;;10399040;28;20226;-81
2022/03/18 20:09:40;;;;;;;23.50;10.10;;;7.80;99.90;;;;;;10408563;28;20246;-81
2022/03/18 20:15:03;;;;;;;28.67;11.93;;;7.90;99.90;;;;;;10409052;28;20299;-81
2022/03/18 20:20:26;;;;;;;26.70;11.33;;;7.80;99.90;;;;;;10380778;28;20494;-79
2022/03/18 20:25:48;;;;;;;23.93;10.77;;;7.70;99.90;;;;;;10381698;28;20195;-81
2022/03/18 20:31:10;;;;;;;17.50;9.67;;;7.80;99.90;;;;;;10380902;28;20445;-81
2022/03/18 20:36:32;;;;;;;25.03;11.03;;;7.70;99.90;;;;;;10394346;28;20233;-81
2022/03/18 20:41:54;;;;;;;28.60;11.27;;;7.60;99.90;;;;;;10367031;28;20199;-79
2022/03/18 20:47:16;;;;;;;22.40;9.77;;;7.60;99.90;;;;;;10380362;28;20231;-81
2022/03/18 20:52:38;;;;;;;26.27;10.70;;;7.60;99.90;;;;;;10374892;28;20566;-78
2022/03/18 20:58:05;;;;;;;21.47;9.80;;;7.50;99.90;;;;;;10398570;28;20230;-79
2022/03/18 21:03:27;;;;;;;20.90;8.87;;;7.40;99.90;;;;;;10404928;28;20223;-81
2022/03/18 21:08:49;;;;;;;24.20;9.77;;;7.30;99.90;;;;;;10395089;28;20191;-79
2022/03/18 21:14:16;;;;;;;23.27;9.87;;;7.30;99.90;;;;;;10401369;28;20242;-79
2022/03/18 21:19:38;;;;;;;17.00;8.43;;;7.30;99.90;;;;;;10387702;28;20208;-79
2022/03/18 21:25:01;;;;;;;21.93;8.47;;;7.30;99.90;;;;;;10387570;28;20425;-79
2022/03/18 21:30:39;;;;;;;23.07;8.97;;;7.20;99.90;;;;;;10373519;28;20426;-79
2022/03/18 21:36:01;;;;;;;17.73;7.80;;;7.20;99.90;;;;;;10400989;28;20467;-81
2022/03/18 21:41:23;;;;;;;21.93;8.33;;;7.10;99.90;;;;;;10373282;28;20200;-79
2022/03/18 21:46:45;;;;;;;21.53;8.27;;;7.00;99.90;;;;;;10392421;28;20393;-82
2022/03/18 21:52:07;;;;;;;17.53;8.73;;;6.90;99.90;;;;;;10378447;28;20197;-82
2022/03/18 21:57:30;;;;;;;18.47;8.93;;;6.90;99.90;;;;;;10434368;28;20225;-81
2022/03/18 22:02:52;;;;;;;21.37;8.73;;;6.90;99.90;;;;;;10416714;28;20300;-78
2022/03/18 22:08:15;;;;;;;16.80;7.10;;;6.80;99.90;;;;;;10386056;28;20204;-79
2022/03/18 22:13:37;;;;;;;16.47;7.90;;;6.70;99.90;;;;;;10426576;28;20301;-81
2022/03/18 22:18:58;;;;;;;22.30;9.60;;;6.60;99.90;;;;;;10371961;28;20312;-81
2022/03/18 22:24:22;;;;;;;23.53;9.90;;;6.50;99.90;;;;;;10371191;28;20294;-81
2022/03/18 22:29:44;;;;;;;17.50;8.70;;;6.30;99.90;;;;;;10398761;28;20564;-81
2022/03/18 22:35:09;;;;;;;18.43;7.63;;;6.50;99.90;;;;;;10398764;28;20512;-80
2022/03/18 22:40:31;;;;;;;22.40;9.17;;;5.80;99.90;;;;;;10371056;28;20200;-81
2022/03/18 22:45:55;;;;;;;24.50;10.60;;;5.70;99.90;;;;;;10383966;28;20269;-80
2022/03/18 22:51:17;;;;;;;25.13;10.67;;;5.60;99.90;;;;;;10398236;28;20433;-81
2022/03/18 22:56:39;;;;;;;20.77;10.27;;;5.50;99.90;;;;;;10396325;28;20571;-81
2022/03/18 23:02:01;;;;;;;20.93;9.63;;;5.50;99.90;;;;;;10406250;28;20198;-81
2022/03/18 23:07:23;;;;;;;17.80;9.40;;;5.50;99.90;;;;;;10424888;28;20212;-81
2022/03/18 23:12:45;;;;;;;19.83;11.53;;;5.50;99.90;;;;;;10383008;28;20246;-81
2022/03/18 23:18:07;;;;;;;35.17;15.90;;;5.50;99.90;;;;;;10383307;28;20238;-81
2022/03/18 23:23:49;;;;;;;28.67;13.20;;;5.50;99.90;;;;;;10397072;28;20417;-81
2022/03/18 23:29:11;;;;;;;23.73;10.90;;;5.50;99.90;;;;;;10369068;28;20202;-79
2022/03/18 23:34:33;;;;;;;23.40;10.50;;;5.40;99.90;;;;;;10395555;28;20194;-81
2022/03/18 23:39:55;;;;;;;24.10;9.33;;;5.40;99.90;;;;;;10396282;28;20237;-81
2022/03/18 23:45:18;;;;;;;17.20;10.07;;;5.30;99.90;;;;;;10381918;28;20190;-80
2022/03/18 23:50:40;;;;;;;32.30;14.17;;;5.40;99.90;;;;;;10382278;28;20236;-82
2022/03/18 23:56:02;;;;;;;23.83;11.37;;;5.40;99.90;;;;;;10367637;28;20547;-81
